Finland, Minnesota
Current Conditions -  °F | °C
As of 3:14 AM on Wednesday 28 Jan 2015 (Local Time) from KBFW Reporting Station
Overcast Overcast  
Wind Chill: 23°   Ceiling: 4700
Heat Index: 28°   Visibility: 10mi
Dew Point: 25°   Wind: 5mph
Humidity: 86%   Direction: 170°S
Pressure: 30.06"   Gusts: NA
Location:  47.41°N, 91.25°W
Report Text: KBFW 280914Z AUTO 17004KT 10SM SCT017 BKN047 OVC080 M02/M04 A3006 RMK AO2
Loading
Personal Weather Stations






























Interactive Weather Map New forecast layout! Learn more

10-Day Weather Forecast

Advertisements
Track Severe Weather on mobile